Time;durP1;ratioP1;P1;durP2;ratioP2;P2;SDS_P1;SDS_P2;PMS_P1;PMS_P2;Temp;Humidity;BMP_temperature;BMP_pressure;BME280_temperature;BME280_humidity;BME280_pressure;Samples;Min_cycle;Max_cycle;Signal;HPM_P1;HPM_P2
2022/11/03 00:00:35;;;;;;;19.42;8.23;;;;;;;5.68;92.15;100061.25;8503358;27;20100;-78
2022/11/03 00:04:35;;;;;;;23.17;8.27;;;;;;;5.65;91.90;100056.41;8484063;27;21132;-78
2022/11/03 00:08:38;;;;;;;27.45;8.35;;;;;;;5.66;91.71;100060.72;8522398;27;20042;-78
2022/11/03 00:12:38;;;;;;;18.63;7.55;;;;;;;5.61;91.92;100060.63;8504925;27;20043;-78
2022/11/03 00:16:39;;;;;;;19.17;6.63;;;;;;;5.55;92.12;100050.97;8499670;27;20092;-78
2022/11/03 00:20:40;;;;;;;20.90;8.07;;;;;;;5.48;92.14;100061.88;8504115;27;20476;-78
2022/11/03 00:24:41;;;;;;;15.85;6.85;;;;;;;5.41;92.07;100059.38;8500975;27;20070;-78
2022/11/03 00:28:44;;;;;;;16.65;6.82;;;;;;;5.33;92.04;100053.66;8509092;27;20125;-78
2022/11/03 00:32:45;;;;;;;20.77;6.95;;;;;;;5.22;92.12;100058.09;8503779;27;20159;-78
2022/11/03 00:36:46;;;;;;;17.95;6.47;;;;;;;5.15;92.17;100057.47;8476617;27;20128;-79
2022/11/03 00:40:57;;;;;;;24.08;7.53;;;;;;;5.14;92.17;100061.22;8506451;27;20047;-78
2022/11/03 00:44:58;;;;;;;20.63;7.47;;;;;;;5.08;92.17;100062.19;8506030;27;20118;-78
2022/11/03 00:48:59;;;;;;;19.98;7.05;;;;;;;5.02;92.16;100057.88;8514999;27;20053;-78
2022/11/03 00:52:59;;;;;;;19.67;7.50;;;;;;;4.98;92.28;100051.38;8503757;27;20464;-78
2022/11/03 00:57:01;;;;;;;15.20;7.65;;;;;;;4.96;92.24;100048.16;8469424;27;20495;-78
2022/11/03 01:01:04;;;;;;;23.73;8.32;;;;;;;4.86;92.15;100053.38;8511250;27;20050;-78
2022/11/03 01:09:26;;;;;;;22.52;8.23;;;;;;;4.73;92.64;100043.03;8460294;27;20078;-79
2022/11/03 01:13:28;;;;;;;15.40;7.20;;;;;;;4.73;92.58;100035.00;8461746;27;20062;-78
2022/11/03 01:17:28;;;;;;;26.75;7.88;;;;;;;4.74;92.34;100044.66;8509197;27;20039;-78
2022/11/03 01:21:29;;;;;;;26.02;8.10;;;;;;;4.72;92.22;100036.03;8500976;27;20087;-78
2022/11/03 01:25:31;;;;;;;17.95;7.20;;;;;;;4.67;92.45;100034.13;8470121;27;20050;-78
2022/11/03 01:29:32;;;;;;;19.75;7.95;;;;;;;4.62;92.55;100042.88;8507857;27;20055;-78
2022/11/03 01:33:33;;;;;;;15.90;6.82;;;;;;;4.58;92.45;100047.13;8498677;27;20495;-78
2022/11/03 01:37:34;;;;;;;16.92;6.75;;;;;;;4.58;92.33;100036.41;8499623;27;20035;-78
2022/11/03 01:41:35;;;;;;;18.80;6.38;;;;;;;4.56;92.34;100043.06;8498609;27;20487;-78
2022/11/03 01:45:36;;;;;;;15.10;5.80;;;;;;;4.49;92.48;100043.25;8513903;27;20042;-78
2022/11/03 01:49:40;;;;;;;18.27;6.75;;;;;;;4.44;92.23;100035.13;8496700;27;20585;-78
2022/11/03 01:53:43;;;;;;;17.02;5.97;;;;;;;4.39;92.30;100036.94;8509393;27;20058;-78
2022/11/03 01:57:56;;;;;;;19.33;6.18;;;;;;;4.39;92.27;100027.03;8428658;28;20052;-78
2022/11/03 02:01:57;;;;;;;16.05;6.13;;;;;;;4.34;92.29;100029.63;8434258;28;20494;-78
2022/11/03 02:05:58;;;;;;;16.35;5.05;;;;;;;4.31;92.61;100023.97;8436362;28;20077;-78
2022/11/03 02:10:00;;;;;;;15.90;6.00;;;;;;;4.28;92.93;100019.13;8420227;28;20121;-78
2022/11/03 02:14:01;;;;;;;16.80;6.63;;;;;;;4.25;92.98;100009.72;8412246;28;20051;-78
2022/11/03 02:18:05;;;;;;;16.85;5.78;;;;;;;4.21;92.95;100004.06;8424724;28;20048;-78
2022/11/03 02:22:24;;;;;;;18.73;8.00;;;;;;;4.19;92.94;100002.69;8424635;28;20057;-78
2022/11/03 02:26:25;;;;;;;21.88;7.03;;;;;;;4.17;92.89;99999.47;8441005;27;20047;-78
2022/11/03 02:30:37;;;;;;;18.63;8.80;;;;;;;4.14;92.83;99997.25;8489330;27;20053;-78
2022/11/03 02:34:46;;;;;;;18.77;7.55;;;;;;;4.11;92.63;100000.44;8497444;27;20526;-78
2022/11/03 02:39:02;;;;;;;19.30;7.65;;;;;;;4.08;92.87;99998.22;8501204;27;20043;-78
2022/11/03 02:43:04;;;;;;;14.77;6.90;;;;;;;4.06;92.74;100000.34;8498436;27;20043;-78
2022/11/03 02:47:10;;;;;;;13.43;6.22;;;;;;;4.03;92.75;99990.13;8509330;27;20394;-78
2022/11/03 02:51:11;;;;;;;14.65;5.80;;;;;;;4.04;92.60;99991.75;8501016;27;20507;-78
2022/11/03 02:55:38;;;;;;;17.05;5.78;;;;;;;4.07;92.70;99991.28;8461946;27;20066;-77
2022/11/03 03:00:04;;;;;;;14.88;5.50;;;;;;;4.09;92.51;99994.50;8372708;28;20048;-77
2022/11/03 03:04:08;;;;;;;16.77;5.40;;;;;;;4.09;92.23;99994.50;8337849;28;20044;-78
2022/11/03 03:08:11;;;;;;;21.25;4.90;;;;;;;4.04;92.55;99997.09;8346792;28;20056;-77
2022/11/03 03:12:13;;;;;;;17.33;5.50;;;;;;;4.00;92.68;99979.94;8355383;28;20041;-77
2022/11/03 03:16:19;;;;;;;10.68;4.60;;;;;;;3.99;92.71;99983.66;8338564;28;20045;-77
2022/11/03 03:20:32;;;;;;;13.55;5.35;;;;;;;3.95;92.82;99977.19;8355028;28;20041;-78
2022/11/03 03:24:37;;;;;;;14.45;6.00;;;;;;;3.97;92.90;99985.75;8335020;28;20065;-78
2022/11/03 03:28:57;;;;;;;18.73;5.70;;;;;;;3.94;93.05;99975.56;8334348;28;20049;-77
2022/11/03 03:32:58;;;;;;;21.02;6.72;;;;;;;3.93;92.75;99969.41;8355058;28;20044;-78
2022/11/03 03:37:00;;;;;;;20.27;7.45;;;;;;;3.92;92.68;99964.31;8367873;28;20057;-77
2022/11/03 03:41:01;;;;;;;26.08;7.75;;;;;;;3.94;92.92;99964.88;8470137;27;20052;-77
2022/11/03 03:45:03;;;;;;;22.20;8.30;;;;;;;3.93;92.98;99957.91;8459845;27;20043;-78
2022/11/03 03:49:04;;;;;;;20.02;8.80;;;;;;;3.92;93.05;99950.94;8489259;27;20043;-78
2022/11/03 03:53:08;;;;;;;20.98;8.70;;;;;;;3.94;92.94;99948.84;8487035;27;20666;-77
2022/11/03 03:57:21;;;;;;;22.65;8.30;;;;;;;3.94;93.06;99948.84;8496136;27;20047;-77
2022/11/03 04:01:22;;;;;;;26.35;10.15;;;;;;;3.96;93.02;99952.09;8498902;27;20090;-77
2022/11/03 04:05:24;;;;;;;25.92;9.68;;;;;;;3.96;93.25;99952.09;8480988;27;20472;-77
2022/11/03 04:09:27;;;;;;;22.67;9.45;;;;;;;3.96;93.24;99952.09;8499711;27;20047;-77
2022/11/03 04:22:16;;;;;;;26.73;13.25;;;;;;;3.93;93.35;99936.53;8491099;27;20519;-78
2022/11/03 04:26:21;;;;;;;33.80;15.50;;;;;;;3.92;93.40;99940.25;8492621;27;20097;-78
2022/11/03 04:30:26;;;;;;;43.78;18.63;;;;;;;3.89;93.75;99935.41;8501962;27;20054;-78
2022/11/03 04:34:26;;;;;;;38.45;16.52;;;;;;;3.87;93.96;99932.16;8486891;27;20039;-78
2022/11/03 04:38:28;;;;;;;35.47;16.38;;;;;;;3.83;94.16;99931.84;8500358;27;20100;-78
2022/11/03 04:42:30;;;;;;;41.47;17.08;;;;;;;3.80;94.31;99922.47;8507826;27;20055;-78
2022/11/03 04:46:31;;;;;;;39.92;17.60;;;;;;;3.80;94.30;99921.66;8481719;27;20043;-78
2022/11/03 04:50:32;;;;;;;44.05;18.48;;;;;;;3.79;94.38;99920.84;8510051;27;20035;-78
2022/11/03 04:54:33;;;;;;;41.45;19.17;;;;;;;3.79;94.62;99915.50;8452531;27;20485;-78
2022/11/03 04:58:35;;;;;;;44.55;19.13;;;;;;;3.77;94.67;99917.59;8498644;27;20042;-78
2022/11/03 05:02:36;;;;;;;42.15;18.85;;;;;;;3.75;95.17;99913.56;8473145;27;20044;-78
2022/11/03 05:06:37;;;;;;;46.25;20.15;;;;;;;3.73;95.10;99916.47;8478970;27;20049;-78
2022/11/03 05:10:38;;;;;;;43.08;20.17;;;;;;;3.74;95.40;99920.78;8502429;27;20050;-78
2022/11/03 05:14:39;;;;;;;55.70;20.15;;;;;;;3.75;95.52;99921.59;8483267;27;20391;-78
2022/11/03 05:18:42;;;;;;;42.80;20.73;;;;;;;3.74;95.77;99912.75;8456092;27;20062;-78
2022/11/03 05:22:43;;;;;;;46.15;17.52;;;;;;;3.75;95.92;99914.34;8505953;27;20050;-78
2022/11/03 05:26:44;;;;;;;41.13;17.55;;;;;;;3.74;95.90;99912.75;8467536;27;20051;-78
2022/11/03 05:30:47;;;;;;;37.97;16.73;;;;;;;3.72;95.71;99914.84;8497623;27;20491;-78
2022/11/03 05:34:51;;;;;;;37.65;16.50;;;;;;;3.73;95.98;99916.47;8496952;27;20047;-78
2022/11/03 05:38:58;;;;;;;31.83;15.07;;;;;;;3.74;95.90;99907.41;8479082;27;20051;-78
2022/11/03 05:43:00;;;;;;;29.55;14.57;;;;;;;3.75;96.05;99914.34;8497078;27;20046;-78
2022/11/03 05:47:21;;;;;;;39.63;15.02;;;;;;;3.76;95.94;99910.63;8478412;27;20058;-78
2022/11/03 05:51:25;;;;;;;30.67;13.85;;;;;;;3.78;96.11;99907.72;8387011;28;20106;-78
2022/11/03 05:55:29;;;;;;;45.70;14.90;;;;;;;3.79;96.30;99910.16;8372731;28;20135;-78
2022/11/03 05:59:30;;;;;;;34.03;12.52;;;;;;;3.81;96.02;99913.38;8388783;28;20044;-78
2022/11/03 06:03:33;;;;;;;33.97;13.00;;;;;;;3.83;96.07;99905.94;8386988;28;20458;-78
2022/11/03 06:07:35;;;;;;;31.10;11.50;;;;;;;3.87;95.96;99908.94;8368659;28;20052;-78
2022/11/03 06:11:36;;;;;;;26.55;10.38;;;;;;;3.89;96.10;99906.00;8388999;28;20500;-78
2022/11/03 06:15:37;;;;;;;31.70;11.20;;;;;;;3.91;96.07;99895.91;8337021;28;20044;-78
2022/11/03 06:19:39;;;;;;;23.77;10.43;;;;;;;3.93;96.05;99904.47;8387692;28;20447;-78
2022/11/03 06:23:40;;;;;;;26.58;10.35;;;;;;;3.94;96.21;99911.44;8386318;28;20047;-78
2022/11/03 06:27:41;;;;;;;29.40;10.93;;;;;;;3.96;96.18;99910.16;8442518;27;20054;-78
2022/11/03 06:31:44;;;;;;;29.85;11.57;;;;;;;4.04;96.01;99908.91;8506386;27;20411;-78
2022/11/03 06:35:45;;;;;;;33.33;12.05;;;;;;;4.11;95.99;99901.53;8494230;27;20051;-78
2022/11/03 06:39:48;;;;;;;35.22;11.65;;;;;;;4.19;95.98;99903.75;8510203;27;20038;-78
2022/11/03 06:43:49;;;;;;;36.90;15.02;;;;;;;4.29;95.92;99898.53;8469454;27;20045;-77
2022/11/03 06:47:51;;;;;;;38.08;17.17;;;;;;;4.40;95.71;99905.63;8482898;27;20061;-78
2022/11/03 06:51:52;;;;;;;34.30;15.27;;;;;;;4.50;95.57;99900.41;8501559;27;20049;-78
2022/11/03 06:55:53;;;;;;;38.58;12.82;;;;;;;4.62;96.38;99898.41;8504748;27;20051;-78
2022/11/03 06:59:54;;;;;;;38.08;13.63;;;;;;;4.80;97.36;99893.78;8510366;27;20139;-78
2022/11/03 07:04:01;;;;;;;29.13;12.82;;;;;;;4.93;97.06;99904.09;8511541;27;20088;-78
2022/11/03 07:08:28;;;;;;;36.65;13.25;;;;;;;5.08;97.33;99904.25;8517009;27;20054;-78
2022/11/03 07:12:29;;;;;;;30.90;11.85;;;;;;;5.24;98.66;99900.63;8512901;27;20046;-80
2022/11/03 07:16:54;;;;;;;28.60;11.82;;;;;;;5.42;98.93;99908.31;8493405;27;20459;-79
2022/11/03 07:20:56;;;;;;;31.50;12.32;;;;;;;5.58;98.70;99905.75;8510649;27;20407;-79
2022/11/03 07:25:01;;;;;;;43.70;13.35;;;;;;;5.70;98.74;99909.06;8396988;28;20558;-78
2022/11/03 07:29:02;;;;;;;32.03;11.63;;;;;;;5.84;98.60;99899.50;8390851;28;20055;-79
2022/11/03 07:33:18;;;;;;;27.08;10.85;;;;;;;6.01;98.64;99900.19;8378524;28;20055;-78
2022/11/03 07:37:22;;;;;;;27.42;11.27;;;;;;;6.16;98.03;99892.22;8406213;28;20055;-79
2022/11/03 07:41:28;;;;;;;24.77;11.25;;;;;;;6.33;97.98;99892.03;8421370;28;20039;-78
2022/11/03 07:45:41;;;;;;;24.27;9.85;;;;;;;6.45;97.86;99894.50;8419078;28;20135;-79
2022/11/03 07:49:42;;;;;;;24.92;9.80;;;;;;;6.54;98.06;99882.19;8414629;28;20521;-79
2022/11/03 07:53:45;;;;;;;22.70;9.40;;;;;;;6.70;97.83;99870.44;8388066;28;20052;-78
2022/11/03 07:57:47;;;;;;;31.60;9.60;;;;;;;6.90;97.70;99869.66;8410882;28;20512;-78
2022/11/03 08:01:55;;;;;;;27.13;11.18;;;;;;;6.99;97.22;99851.94;8390493;28;20051;-79
2022/11/03 08:05:56;;;;;;;31.33;10.63;;;;;;;7.08;97.08;99856.56;8388450;28;20508;-79
2022/11/03 08:09:57;;;;;;;31.40;11.05;;;;;;;7.20;96.98;99843.66;8411361;28;20051;-78
2022/11/03 08:13:58;;;;;;;37.58;12.43;;;;;;;7.32;96.70;99834.50;8400635;28;20413;-77
2022/11/03 08:17:59;;;;;;;41.47;15.68;;;;;;;7.44;96.36;99843.13;8408034;28;20056;-78
2022/11/03 08:22:00;;;;;;;29.63;13.80;;;;;;;7.55;96.11;99839.34;8395625;28;20179;-78
2022/11/03 08:26:01;;;;;;;27.50;12.75;;;;;;;7.65;95.59;99828.56;8399059;28;20106;-79
2022/11/03 08:30:02;;;;;;;34.72;13.93;;;;;;;7.72;95.27;99822.94;8403367;28;20048;-78
2022/11/03 08:34:03;;;;;;;37.05;14.55;;;;;;;7.82;94.75;99817.53;8359598;28;20049;-77
2022/11/03 08:38:04;;;;;;;43.60;16.42;;;;;;;7.89;94.35;99813.44;8438423;27;20042;-78
2022/11/03 08:42:05;;;;;;;43.85;17.77;;;;;;;8.06;93.99;99802.38;8487476;27;20054;-78
2022/11/03 08:46:06;;;;;;;48.08;18.48;;;;;;;8.23;93.78;99802.03;8488218;27;20061;-79
2022/11/03 08:50:07;;;;;;;71.53;23.48;;;;;;;8.37;93.02;99808.44;8472535;27;20047;-78
2022/11/03 08:54:08;;;;;;;114.43;33.90;;;;;;;8.45;92.77;99791.72;8498079;27;20055;-77
2022/11/03 08:58:09;;;;;;;76.93;25.25;;;;;;;8.52;92.01;99784.13;8511450;27;20596;-79
2022/11/03 09:02:10;;;;;;;44.72;17.02;;;;;;;8.63;92.21;99791.06;8489358;27;20135;-79
2022/11/03 09:06:11;;;;;;;49.08;18.20;;;;;;;8.75;91.18;99778.06;8507398;27;20046;-78
2022/11/03 09:10:12;;;;;;;24.77;12.00;;;;;;;8.93;91.28;99778.50;8503259;27;20047;-78
2022/11/03 09:14:13;;;;;;;29.52;13.45;;;;;;;9.07;90.99;99768.66;8506785;27;20062;-79
2022/11/03 09:18:15;;;;;;;28.40;10.73;;;;;;;9.25;90.21;99759.91;8517350;27;20039;-78
2022/11/03 09:22:16;;;;;;;30.48;11.05;;;;;;;9.37;89.98;99762.19;8501782;27;20108;-78
2022/11/03 09:26:17;;;;;;;31.10;10.50;;;;;;;9.47;89.12;99757.50;8503446;27;20134;-79
2022/11/03 09:30:18;;;;;;;24.52;9.10;;;;;;;9.56;89.05;99750.41;8503058;27;20039;-79
2022/11/03 09:34:19;;;;;;;25.52;9.18;;;;;;;9.58;88.93;99745.50;8512046;27;20090;-79
2022/11/03 09:38:20;;;;;;;25.05;8.23;;;;;;;9.55;88.83;99743.41;8474518;27;20464;-78
2022/11/03 09:42:24;;;;;;;24.23;7.97;;;;;;;9.60;88.53;99735.25;8461544;27;20099;-79
2022/11/03 09:46:28;;;;;;;24.27;7.88;;;;;;;9.78;88.22;99735.59;8516969;27;20050;-79
2022/11/03 09:50:29;;;;;;;22.70;7.63;;;;;;;9.96;87.16;99721.34;8521809;27;20138;-80
2022/11/03 09:54:30;;;;;;;24.02;7.43;;;;;;;10.15;86.40;99714.09;8479250;27;20059;-79
2022/11/03 09:58:32;;;;;;;20.42;6.50;;;;;;;10.32;86.06;99703.59;8496331;27;20077;-79
2022/11/03 10:02:37;;;;;;;15.90;6.47;;;;;;;10.55;84.41;99700.00;8477212;27;20089;-79
2022/11/03 10:06:39;;;;;;;16.80;5.03;;;;;;;10.63;83.77;99686.94;8497141;27;20047;-79
2022/11/03 10:10:41;;;;;;;21.23;6.57;;;;;;;10.78;82.63;99684.00;8508865;27;20051;-78
2022/11/03 10:14:43;;;;;;;19.63;5.05;;;;;;;10.87;82.09;99676.81;8466793;27;20039;-80
2022/11/03 10:18:44;;;;;;;28.30;6.22;;;;;;;10.97;81.06;99665.81;8507308;27;20070;-79
2022/11/03 10:22:46;;;;;;;22.92;6.32;;;;;;;11.02;81.62;99663.03;8459465;27;20084;-78
2022/11/03 10:26:48;;;;;;;22.08;5.80;;;;;;;11.07;81.29;99654.81;8477799;27;20048;-80
2022/11/03 10:30:51;;;;;;;18.85;5.65;;;;;;;11.03;81.04;99648.41;8495759;27;20047;-80
2022/11/03 10:34:52;;;;;;;15.40;5.97;;;;;;;11.01;81.73;99645.19;8470980;27;20055;-80
2022/11/03 10:38:53;;;;;;;28.88;7.90;;;;;;;11.02;80.86;99644.09;8459806;27;20047;-79
2022/11/03 10:42:58;;;;;;;28.38;9.23;;;;;;;11.08;80.91;99629.41;8499392;27;20384;-80
2022/11/03 10:47:02;;;;;;;32.25;9.18;;;;;;;11.26;80.77;99631.19;8516383;27;20551;-78
2022/11/03 10:51:03;;;;;;;26.75;6.05;;;;;;;11.53;79.63;99630.38;8516951;27;20062;-78
2022/11/03 10:55:04;;;;;;;15.90;6.88;;;;;;;11.77;78.17;99619.38;8495172;27;20047;-79
2022/11/03 10:59:08;;;;;;;28.23;9.30;;;;;;;11.96;77.45;99622.72;8495014;27;20043;-80
2022/11/03 11:03:11;;;;;;;14.55;4.80;;;;;;;12.05;75.08;99615.50;8459542;27;20047;-79
2022/11/03 11:07:20;;;;;;;17.90;5.30;;;;;;;12.18;74.97;99608.44;8494737;27;20093;-79
2022/11/03 11:11:21;;;;;;;16.23;5.57;;;;;;;12.25;73.85;99604.19;8494649;28;20059;-79
2022/11/03 11:15:45;;;;;;;23.15;5.20;;;;;;;12.36;74.30;99593.91;8499890;27;20039;-80
2022/11/03 11:20:20;;;;;;;11.93;4.60;;;;;;;12.44;73.91;99581.53;8501931;27;20039;-79
2022/11/03 11:24:43;;;;;;;14.48;3.95;;;;;;;12.53;73.61;99571.56;8516076;27;20043;-79
2022/11/03 11:28:46;;;;;;;21.60;4.60;;;;;;;12.57;71.68;99583.38;8462118;27;20167;-78
2022/11/03 11:32:47;;;;;;;15.00;4.45;;;;;;;12.65;71.31;99569.06;8507802;27;20047;-79
2022/11/03 11:36:54;;;;;;;14.63;4.97;;;;;;;12.67;71.22;99564.16;8513844;27;20070;-79
2022/11/03 11:40:55;;;;;;;14.52;4.40;;;;;;;12.69;70.50;99565.41;8500149;27;20062;-79
2022/11/03 11:44:57;;;;;;;16.95;4.47;;;;;;;12.68;71.02;99552.19;8500985;27;20043;-79
2022/11/03 11:49:13;;;;;;;13.65;4.10;;;;;;;12.80;71.29;99544.25;8487292;27;20058;-79
2022/11/03 11:53:20;;;;;;;17.05;4.20;;;;;;;12.79;70.68;99542.69;8456642;27;20156;-78
2022/11/03 11:57:23;;;;;;;17.75;4.93;;;;;;;12.76;69.62;99532.47;8515197;27;20043;-80
2022/11/03 12:01:31;;;;;;;14.13;4.78;;;;;;;12.75;69.46;99530.03;8482165;27;20051;-79
2022/11/03 12:05:32;;;;;;;;;;;;;;;12.77;69.12;99517.81;8515146;27;20053;-80
2022/11/03 12:09:33;;;;;;;15.90;4.30;;;;;;;12.82;69.27;99509.53;8499976;27;19923;-80
2022/11/03 12:13:46;;;;;;;17.42;4.95;;;;;;;12.87;69.82;99506.66;8512286;27;20476;-80
2022/11/03 12:17:47;;;;;;;15.57;4.63;;;;;;;12.86;70.50;99499.66;8515348;27;20554;-79
2022/11/03 12:21:48;;;;;;;18.98;4.82;;;;;;;12.90;70.13;99494.41;8436945;28;20453;-80
2022/11/03 12:25:52;;;;;;;15.68;4.38;;;;;;;12.80;70.43;99481.94;8427038;28;20058;-79
2022/11/03 12:29:58;;;;;;;15.93;5.05;;;;;;;12.74;70.04;99485.91;8460906;28;20070;-80
2022/11/03 12:33:59;;;;;;;23.77;5.18;;;;;;;12.71;69.60;99486.53;8454713;28;20088;-80
2022/11/03 12:38:00;;;;;;;17.00;5.15;;;;;;;12.72;69.59;99482.72;8459341;28;20052;-80
2022/11/03 12:42:01;;;;;;;18.90;5.07;;;;;;;12.69;69.69;99472.47;8460720;28;20047;-80
2022/11/03 12:46:02;;;;;;;12.15;4.72;;;;;;;12.72;69.33;99471.88;8459080;28;20492;-77
2022/11/03 12:50:03;;;;;;;15.48;5.00;;;;;;;12.79;69.21;99464.09;8435278;28;20111;-79
2022/11/03 12:54:05;;;;;;;16.52;5.15;;;;;;;13.35;67.37;99448.91;8457481;28;20055;-79
2022/11/03 12:58:05;;;;;;;21.25;4.00;;;;;;;13.98;65.87;99442.78;8484740;27;20510;-78
2022/11/03 13:02:09;;;;;;;17.05;5.25;;;;;;;14.13;65.76;99438.75;8517281;27;20074;-79
2022/11/03 13:06:10;;;;;;;16.15;4.93;;;;;;;14.19;65.38;99442.91;8511456;27;20058;-79
2022/11/03 13:10:12;;;;;;;13.35;4.63;;;;;;;14.66;64.37;99430.91;8531190;27;20047;-78
2022/11/03 13:14:13;;;;;;;12.80;4.70;;;;;;;14.86;63.51;99417.72;8499236;27;20039;-79
2022/11/03 13:18:14;;;;;;;12.10;3.80;;;;;;;14.54;63.73;99411.78;8498803;27;20051;-79
2022/11/03 13:22:14;;;;;;;10.45;3.78;;;;;;;14.29;63.85;99412.66;8510283;27;20047;-80
2022/11/03 13:26:16;;;;;;;14.50;4.00;;;;;;;14.01;63.58;99414.22;8497048;27;20058;-80
2022/11/03 13:30:16;;;;;;;9.55;3.97;;;;;;;13.77;63.98;99404.66;8496937;27;20043;-79
2022/11/03 13:34:17;;;;;;;20.63;4.85;;;;;;;13.49;64.53;99379.00;8496293;27;20044;-78
2022/11/03 13:38:18;;;;;;;13.50;4.07;;;;;;;13.34;65.17;99379.47;8505246;27;20046;-80
2022/11/03 13:42:19;;;;;;;16.15;4.50;;;;;;;13.14;66.07;99369.28;8505221;27;20047;-79
2022/11/03 13:46:20;;;;;;;13.40;4.60;;;;;;;13.07;66.30;99365.09;8496899;27;20043;-79
2022/11/03 13:50:22;;;;;;;19.27;4.45;;;;;;;12.91;67.44;99361.25;8456072;27;20591;-79
2022/11/03 13:54:23;;;;;;;20.02;4.20;;;;;;;12.79;67.83;99352.97;8510475;27;20043;-81
2022/11/03 13:58:24;;;;;;;16.75;4.05;;;;;;;12.60;68.33;99350.53;8495621;27;20554;-80
2022/11/03 14:02:25;;;;;;;55.78;26.50;;;;;;;12.50;68.58;99350.03;8497838;27;20046;-81
2022/11/03 14:06:28;;;;;;;14.80;6.45;;;;;;;12.35;68.89;99347.78;8468975;27;20050;-80
2022/11/03 14:10:29;;;;;;;19.58;4.05;;;;;;;12.17;69.30;99342.28;8508871;27;20047;-80
2022/11/03 14:14:30;;;;;;;14.90;5.47;;;;;;;12.09;69.87;99343.06;8503184;27;20063;-80
2022/11/03 14:18:31;;;;;;;56.90;19.38;;;;;;;11.95;70.19;99334.22;8500752;27;20182;-79
2022/11/03 14:22:32;;;;;;;61.22;18.95;;;;;;;11.87;70.72;99332.28;8509960;27;20054;-80
2022/11/03 14:26:33;;;;;;;26.38;8.20;;;;;;;11.81;70.75;99320.00;8494605;27;20133;-80
2022/11/03 14:30:35;;;;;;;17.17;5.30;;;;;;;11.71;71.22;99312.13;8498748;27;20073;-80
2022/11/03 14:34:37;;;;;;;20.63;6.13;;;;;;;11.65;71.54;99307.97;8501635;27;20388;-80
2022/11/03 14:38:38;;;;;;;14.98;5.22;;;;;;;11.59;71.71;99306.50;8515605;27;20096;-80
2022/11/03 14:42:39;;;;;;;17.80;5.50;;;;;;;11.53;71.90;99310.44;8465786;27;20495;-80
2022/11/03 14:46:40;;;;;;;19.67;5.85;;;;;;;11.46;72.21;99304.69;8470175;27;20043;-78
2022/11/03 14:50:41;;;;;;;19.40;7.53;;;;;;;11.33;72.77;99296.31;8510863;27;20122;-80
2022/11/03 14:54:42;;;;;;;16.00;5.40;;;;;;;11.24;73.04;99309.00;8506964;27;20050;-80
2022/11/03 14:58:43;;;;;;;20.95;9.30;;;;;;;11.11;73.60;99299.03;8458045;27;20372;-79
2022/11/03 15:02:44;;;;;;;13.32;5.80;;;;;;;11.01;73.77;99293.88;8499843;27;20038;-79
2022/11/03 15:06:45;;;;;;;31.67;14.55;;;;;;;10.91;74.10;99288.72;8503203;27;20465;-80
2022/11/03 15:10:47;;;;;;;16.42;6.57;;;;;;;10.83;74.38;99275.94;8493544;27;20051;-79
2022/11/03 15:14:48;;;;;;;14.35;5.82;;;;;;;10.72;74.65;99277.28;8484916;27;20050;-80
2022/11/03 15:18:49;;;;;;;15.20;6.45;;;;;;;10.65;74.83;99271.50;8511070;27;20053;-79
2022/11/03 15:22:50;;;;;;;21.38;9.45;;;;;;;10.58;75.06;99269.19;8494184;27;20146;-80
2022/11/03 15:26:51;;;;;;;30.65;14.20;;;;;;;10.51;75.00;99264.25;8504103;27;20086;-80
2022/11/03 15:30:52;;;;;;;23.75;9.25;;;;;;;10.45;75.30;99254.66;8501094;27;20067;-79
2022/11/03 15:34:53;;;;;;;22.55;9.90;;;;;;;10.36;75.56;99251.09;8500173;27;20051;-80
2022/11/03 15:38:54;;;;;;;32.22;12.02;;;;;;;10.28;75.88;99248.28;8507660;27;20481;-79
2022/11/03 15:42:55;;;;;;;35.67;9.63;;;;;;;10.22;75.74;99234.09;8456440;27;20116;-79
2022/11/03 15:46:56;;;;;;;33.17;12.77;;;;;;;10.19;76.15;99223.91;8499047;27;20047;-80
2022/11/03 15:50:57;;;;;;;21.27;7.28;;;;;;;10.14;76.13;99221.31;8505676;27;20432;-80
2022/11/03 15:54:58;;;;;;;21.83;8.15;;;;;;;10.13;76.22;99214.31;8503003;27;20620;-79
2022/11/03 15:58:59;;;;;;;30.95;13.43;;;;;;;10.11;76.28;99211.09;8508069;27;20049;-79
2022/11/03 16:02:59;;;;;;;19.88;8.07;;;;;;;10.08;76.30;99200.91;8521124;27;20416;-79
2022/11/03 16:07:01;;;;;;;28.40;8.07;;;;;;;10.10;76.16;99196.00;8508456;27;20046;-80
2022/11/03 16:11:01;;;;;;;20.90;8.35;;;;;;;10.08;76.07;99179.34;8503501;27;20365;-80
2022/11/03 16:15:03;;;;;;;18.60;7.70;;;;;;;10.06;75.90;99170.72;8512219;27;20050;-79
2022/11/03 16:19:04;;;;;;;21.65;8.82;;;;;;;10.04;75.70;99167.56;8509311;27;20050;-79
2022/11/03 16:23:05;;;;;;;50.25;21.75;;;;;;;10.01;75.71;99157.34;8502729;27;20058;-79
2022/11/03 16:27:06;;;;;;;33.88;13.27;;;;;;;10.06;75.10;99154.53;8458212;27;20058;-79
2022/11/03 16:31:07;;;;;;;23.92;7.75;;;;;;;10.05;74.84;99147.53;8476684;27;20606;-78
2022/11/03 16:35:08;;;;;;;32.70;15.20;;;;;;;10.04;74.66;99148.66;8514018;27;20063;-80
2022/11/03 16:39:10;;;;;;;27.45;11.10;;;;;;;10.02;75.08;99148.97;8505665;27;20050;-78
2022/11/03 16:43:11;;;;;;;39.60;15.35;;;;;;;9.99;74.89;99132.59;8500448;27;20043;-79
2022/11/03 16:47:12;;;;;;;17.67;7.75;;;;;;;9.94;75.34;99135.41;8480315;27;20051;-80
2022/11/03 16:51:13;;;;;;;29.67;15.05;;;;;;;9.91;75.21;99125.22;8500397;27;20096;-80
2022/11/03 16:55:16;;;;;;;17.63;7.45;;;;;;;9.85;75.64;99115.63;8503254;27;20070;-80
2022/11/03 16:59:16;;;;;;;22.95;9.70;;;;;;;9.85;75.41;99118.31;8513266;27;20050;-79
2022/11/03 17:03:18;;;;;;;16.90;8.68;;;;;;;9.85;75.39;99115.63;8506634;27;20043;-79
2022/11/03 17:07:19;;;;;;;34.35;12.57;;;;;;;9.82;75.44;99121.63;8500227;27;20107;-79
2022/11/03 17:11:34;;;;;;;29.25;11.60;;;;;;;9.79;75.55;99122.22;8514045;27;20047;-79
2022/11/03 17:15:35;;;;;;;31.98;11.27;;;;;;;9.77;75.51;99113.66;8495726;27;20046;-80
2022/11/03 17:19:36;;;;;;;24.25;10.15;;;;;;;9.71;75.75;99105.69;8510195;27;20047;-79
2022/11/03 17:23:37;;;;;;;44.38;21.30;;;;;;;9.68;75.96;99095.47;8499369;27;20131;-77
2022/11/03 17:27:53;;;;;;;29.02;11.05;;;;;;;9.64;75.94;99081.00;8508904;27;20691;-80
2022/11/03 17:31:56;;;;;;;28.30;11.13;;;;;;;9.61;75.92;99068.16;8493301;27;20580;-80
2022/11/03 17:35:57;;;;;;;32.90;11.30;;;;;;;9.57;76.16;99067.13;8499790;27;20047;-79
2022/11/03 17:39:59;;;;;;;29.05;12.20;;;;;;;9.55;76.08;99063.97;8510427;27;20133;-79
2022/11/03 17:44:00;;;;;;;31.85;12.40;;;;;;;9.51;76.35;99052.19;8488453;27;20047;-79
2022/11/03 17:48:01;;;;;;;33.35;11.95;;;;;;;9.47;76.49;99061.97;8515041;27;20141;-79
2022/11/03 17:52:05;;;;;;;29.85;12.07;;;;;;;9.45;76.50;99048.00;8488157;27;20519;-80
2022/11/03 17:56:15;;;;;;;59.15;25.63;;;;;;;9.41;76.69;99041.59;8499739;27;20484;-80
2022/11/03 18:00:21;;;;;;;39.33;16.80;;;;;;;9.31;77.24;99036.44;8497622;27;20503;-78
2022/11/03 18:04:22;;;;;;;41.22;15.45;;;;;;;9.31;77.26;99031.03;8480988;27;20043;-79
2022/11/03 18:08:23;;;;;;;41.42;13.43;;;;;;;9.29;77.54;99022.47;8495713;27;20046;-80
2022/11/03 18:16:53;;;;;;;42.88;15.07;;;;;;;9.22;77.81;99006.72;8501009;27;20129;-80
2022/11/03 18:20:54;;;;;;;58.80;20.42;;;;;;;9.22;77.51;99005.91;8512059;27;20389;-78
2022/11/03 18:24:58;;;;;;;42.40;16.80;;;;;;;9.17;77.74;98992.56;8501426;27;20476;-80
2022/11/03 18:28:59;;;;;;;38.72;14.90;;;;;;;9.20;77.67;98978.50;8395840;28;20139;-78
2022/11/03 18:33:00;;;;;;;38.40;15.77;;;;;;;9.18;77.83;98978.00;8404390;28;20140;-79
2022/11/03 18:37:01;;;;;;;34.60;14.40;;;;;;;9.15;78.01;98973.19;8383176;28;20044;-80
2022/11/03 18:41:34;;;;;;;34.78;13.20;;;;;;;9.13;78.08;98956.53;8415533;28;20055;-80
2022/11/03 18:45:23;;;;;;;34.95;15.00;;;;;;;9.11;78.19;98939.88;8411002;28;20165;-80
2022/11/03 18:49:25;;;;;;;42.75;18.10;;;;;;;9.07;78.05;98936.19;8403322;28;20078;-79
2022/11/03 18:53:26;;;;;;;40.33;15.30;;;;;;;9.00;78.49;98933.13;8356170;28;20056;-79
2022/11/03 18:57:27;;;;;;;38.58;15.35;;;;;;;9.04;78.50;98928.75;8427792;28;20055;-78
2022/11/03 19:01:28;;;;;;;56.80;24.50;;;;;;;8.94;78.71;98931.63;8494646;27;20461;-79
2022/11/03 19:05:30;;;;;;;33.25;14.68;;;;;;;8.94;78.67;98924.34;8506096;27;20483;-79
2022/11/03 19:09:31;;;;;;;44.17;17.98;;;;;;;8.87;79.02;98908.63;8490365;27;20047;-77